»·PEaware :: FFT2946 KSAN-KPHX

FFT2946 :: KSAN-KPHX

FLIGHT INFORMATION

Flight Status: Arrived
Operator:
Frontier Airlines
More flights by this operator :: More flights under this callsign
Pilot: Josh T. (20631)
Aircraft: AIRBUS A320
(A320)
More flights by this aircraft type
Origin: KSAN San Diego Intl-Lindbergh
United States
Destination: KPHX Phoenix Sky Harbor Intl
United States
More flights between these airports :: More routes between these airports
Route: +ZZOOO2 IPL J18 BZA HOGGZ HYDRR1
File this flight plan on PilotEdge
Remarks:
Altitude:
(Current/Filed)
29,000ft
Speed:
(Current/Filed)
450kts
Departed: 09-Jan-20 05:51 PM
Arrived: 09-Jan-20 06:40 PM
Distance/Time
Traveled:
264nm/0:49
Distance/Time
To Go:
Arrived

Flight Plot

Page will automatically refresh every two minutes.

Flight plan parsing failed; only flown route is shown


Map Options




Map Legend


Flown Route
Filed Route
Departure Airport
Arrival Airport
Navaid (VOR, NDB)
Fix

Horizontal Profiles

Position Reports

Time Latitude Longitude Heading Altitude Ground
Speed
09-Jan-20 17:00 32.733361 -117.197700 280 29ft 0kts
09-Jan-20 17:01 32.733361 -117.197700 280 29ft 0kts
09-Jan-20 17:02 32.733361 -117.197700 280 29ft 0kts
09-Jan-20 17:03 32.733361 -117.197700 280 29ft 0kts
09-Jan-20 17:04 32.733361 -117.197700 280 29ft 0kts
09-Jan-20 17:05 32.733361 -117.197700 280 29ft 0kts
09-Jan-20 17:06 32.733361 -117.197700 280 29ft 0kts
09-Jan-20 17:07 32.733361 -117.197700 280 29ft 0kts
09-Jan-20 17:08 32.733361 -117.197700 280 29ft 0kts
09-Jan-20 17:09 32.733361 -117.197700 280 29ft 0kts
09-Jan-20 17:10 32.733361 -117.197700 280 29ft 0kts
09-Jan-20 17:11 32.733361 -117.197700 280 29ft 0kts
09-Jan-20 17:12 32.733361 -117.197700 280 29ft 0kts
09-Jan-20 17:13 32.733361 -117.197700 280 29ft 0kts
09-Jan-20 17:14 32.733361 -117.197700 280 29ft 0kts
09-Jan-20 17:15 32.733361 -117.197700 280 29ft 0kts
09-Jan-20 17:16 32.733361 -117.197700 280 29ft 0kts
09-Jan-20 17:17 32.733361 -117.197700 280 29ft 0kts
09-Jan-20 17:18 32.733361 -117.197700 280 29ft 0kts
09-Jan-20 17:19 32.733361 -117.197700 280 29ft 0kts
09-Jan-20 17:20 32.733361 -117.197700 280 29ft 0kts
09-Jan-20 17:21 32.733361 -117.197700 280 29ft 0kts
09-Jan-20 17:22 32.733361 -117.197700 280 29ft 0kts
09-Jan-20 17:23 32.733361 -117.197700 280 29ft 0kts
09-Jan-20 17:24 32.733361 -117.197700 280 29ft 0kts
09-Jan-20 17:25 32.733361 -117.197700 280 29ft 0kts
09-Jan-20 17:26 32.733361 -117.197700 280 29ft 0kts
09-Jan-20 17:27 32.733361 -117.197700 280 29ft 0kts
09-Jan-20 17:28 32.733361 -117.197700 280 29ft 0kts
09-Jan-20 17:29 32.733361 -117.197700 280 29ft 0kts
09-Jan-20 17:30 32.733361 -117.197700 280 29ft 0kts
09-Jan-20 17:31 32.733361 -117.197700 280 29ft 0kts
09-Jan-20 17:32 32.733361 -117.197700 280 29ft 0kts
09-Jan-20 17:33 32.733361 -117.197700 280 29ft 0kts
09-Jan-20 17:34 32.733361 -117.197700 280 29ft 0kts
09-Jan-20 17:35 32.733361 -117.197700 280 29ft 0kts
09-Jan-20 17:36 32.733361 -117.197700 280 29ft 0kts
09-Jan-20 17:37 32.733361 -117.197700 280 29ft 0kts
09-Jan-20 17:38 32.733361 -117.197700 280 29ft 0kts
09-Jan-20 17:39 32.733313 -117.197473 298 29ft 2kts
09-Jan-20 17:40 32.733046 -117.197290 17 29ft 0kts
09-Jan-20 17:41 32.733046 -117.197290 17 29ft 0kts
09-Jan-20 17:42 32.733047 -117.197290 17 29ft 0kts
09-Jan-20 17:43 32.733047 -117.197289 17 29ft 0kts
09-Jan-20 17:44 32.733047 -117.197289 17 29ft 0kts
09-Jan-20 17:45 32.733993 -117.196978 19 29ft 8kts
09-Jan-20 17:46 32.733427 -117.193408 106 29ft 15kts
09-Jan-20 17:47 32.732027 -117.187619 105 29ft 20kts
09-Jan-20 17:48 32.730386 -117.180844 105 29ft 21kts
09-Jan-20 17:49 32.729594 -117.176373 67 29ft 8kts
09-Jan-20 17:50 32.730686 -117.177898 286 29ft 55kts
09-Jan-20 17:51 32.742366 -117.225447 285 1973ft 172kts
09-Jan-20 17:52 32.757070 -117.289842 278 4014ft 229kts
09-Jan-20 17:53 32.707433 -117.331345 163 7008ft 292kts
09-Jan-20 17:54 32.647352 -117.261399 137 9987ft 316kts
09-Jan-20 17:55 32.622557 -117.156429 88 11793ft 365kts
09-Jan-20 17:56 32.612332 -117.030080 92 13982ft 397kts
09-Jan-20 17:57 32.604828 -116.897426 73 16262ft 402kts
09-Jan-20 17:58 32.631313 -116.767183 73 18408ft 416kts
09-Jan-20 17:59 32.644269 -116.627750 77 20279ft 432kts
09-Jan-20 18:00 32.658664 -116.483939 77 21950ft 445kts
09-Jan-20 18:01 32.672666 -116.335619 77 23462ft 458kts
09-Jan-20 18:02 32.687063 -116.183968 77 24956ft 466kts
09-Jan-20 18:03 32.701324 -116.030883 77 26582ft 468kts
09-Jan-20 18:04 32.715684 -115.876031 79 28041ft 472kts
09-Jan-20 18:05 32.729808 -115.721018 79 28924ft 465kts
09-Jan-20 18:06 32.743542 -115.568841 79 28945ft 464kts
09-Jan-20 18:07 32.751460 -115.415745 85 28945ft 464kts
09-Jan-20 18:08 32.754749 -115.262619 85 28932ft 463kts
09-Jan-20 18:09 32.758200 -115.109283 86 28920ft 463kts
09-Jan-20 18:10 32.761415 -114.956435 86 28941ft 463kts
09-Jan-20 18:11 32.764461 -114.803505 87 28964ft 463kts
09-Jan-20 18:12 32.767312 -114.650104 88 28939ft 464kts
09-Jan-20 18:13 32.769709 -114.496663 89 28924ft 465kts
09-Jan-20 18:14 32.771716 -114.342777 89 28734ft 456kts
09-Jan-20 18:15 32.773522 -114.194853 89 26903ft 441kts
09-Jan-20 18:16 32.776545 -114.051913 84 25156ft 424kts
09-Jan-20 18:17 32.792231 -113.913895 83 24954ft 423kts
09-Jan-20 18:18 32.807017 -113.775616 84 24950ft 421kts
09-Jan-20 18:19 32.842251 -113.645946 47 24922ft 416kts
09-Jan-20 18:20 32.919567 -113.545351 43 23232ft 418kts
09-Jan-20 18:21 32.996920 -113.443199 44 20770ft 399kts
09-Jan-20 18:22 33.070043 -113.347138 45 18913ft 374kts
09-Jan-20 18:23 33.136277 -113.257101 46 17640ft 355kts
09-Jan-20 18:24 33.200931 -113.169549 46 16419ft 349kts
09-Jan-20 18:25 33.264381 -113.082965 50 15205ft 344kts
09-Jan-20 18:26 33.277387 -112.972106 92 13679ft 345kts
09-Jan-20 18:27 33.279614 -112.859630 88 12218ft 324kts
09-Jan-20 18:28 33.301653 -112.763907 63 11085ft 284kts
09-Jan-20 18:29 33.333380 -112.680066 65 9891ft 273kts
09-Jan-20 18:31 33.365367 -112.596935 66 8594ft 275kts
09-Jan-20 18:32 33.396350 -112.517069 65 8012ft 245kts
09-Jan-20 18:33 33.423051 -112.441940 67 7302ft 243kts
09-Jan-20 18:34 33.429070 -112.363655 92 6098ft 236kts
09-Jan-20 18:35 33.429027 -112.285271 92 5269ft 230kts
09-Jan-20 18:36 33.428978 -112.210170 91 4112ft 220kts
09-Jan-20 18:37 33.428935 -112.141092 91 3012ft 192kts
09-Jan-20 18:38 33.428901 -112.085281 90 2131ft 158kts
09-Jan-20 18:39 33.428840 -112.034501 90 1300ft 146kts
09-Jan-20 18:40 33.429253 -112.008051 46 1149ft 16kts
09-Jan-20 18:41 33.429812 -112.007276 64 1149ft 0kts
09-Jan-20 18:42 33.430879 -112.006256 358 1149ft 8kts
09-Jan-20 18:43 33.432296 -112.007582 346 1149ft 7kts
09-Jan-20 18:44 33.432721 -112.007620 359 1149ft 2kts
09-Jan-20 18:45 33.433400 -112.007934 315 1149ft 0kts
09-Jan-20 18:46 33.433426 -112.007965 315 1149ft 0kts
09-Jan-20 18:47 33.433426 -112.007965 315 1149ft 0kts

Navigation Log

Ident Type
Flight plan parsing failed, navigation log unavailable